DW8454 Weather Reports


Display with metric or nautical units.
time (UTC)temp
F
wind
direction
speed
MPH
gust
MPH
rain 1hr
in
rain 24hr
in
rain mn
in
humidity
%
barometer
mb
20180526081258 65 209 0.0 0.0 0.00 0.00 0.00 68 1008.2
20180526080233 65 194 1.0 5.0 0.00 0.00 0.00 67 1008.2
20180526075226 65 203 1.0 5.0 0.00 0.00 0.00 67 1008.3
20180526074228 65 198 1.0 5.0 0.00 0.00 0.00 67 1008.3
20180526073155 65 198 1.0 4.0 0.00 0.00 0.00 68 1008.3
20180526072203 65 196 0.0 3.0 0.00 0.00 0.00 67 1008.3
20180526071204 65 186 0.0 0.0 0.00 0.00 0.00 66 1008.3
20180526070229 65 197 0.0 3.0 0.00 0.00 0.00 66 1008.4
20180526065213 65 209 0.0 0.0 0.00 0.00 0.00 66 1008.5
20180526064234 66 198 0.0 3.0 0.00 0.00 0.00 66 1008.6
20180526063255 66 193 0.0 3.0 0.00 0.00 0.00 65 1008.7
20180526062307 66 203 0.0 0.0 0.00 0.00 0.00 65 1008.6
20180526061234 66 187 0.0 4.0 0.00 0.00 0.00 64 1008.8
20180526060241 66 194 0.0 0.0 0.00 0.00 0.00 64 1008.8
20180526055225 67 192 0.0 0.0 0.00 0.00 0.00 64 1008.9
20180526054204 67 198 0.0 0.0 0.00 0.00 0.00 63 1008.9
20180526053228 67 192 0.0 0.0 0.00 0.00 0.00 63 1008.9
20180526052245 67 188 0.0 3.0 0.00 0.00 0.00 62 1009.0
20180526051215 67 196 0.0 2.0 0.00 0.00 0.00 62 1008.9
20180526050144 67 191 0.0 0.0 0.00 0.00 0.00 62 1008.9
20180526045115 67 192 2.0 4.0 0.00 0.00 0.00 62 1009.0
20180526044046 67 194 0.0 4.0 0.00 0.00 0.00 62 1008.9
20180526043100 67 201 0.0 0.0 0.00 0.00 0.00 63 1008.9
20180526042031 67 201 0.0 0.0 0.00 0.00 0.00 63 1008.8
20180526041014 67 195 0.0 0.0 0.00 0.00 0.00 63 1008.6
20180526040038 67 194 0.0 0.0 0.00 0.00 0.00 65 1008.7
20180526035058 67 194 0.0 0.0 0.00 0.00 0.00 66 1008.6
20180526034104 67 180 0.0 0.0 0.00 0.00 0.00 64 1008.6
20180526033055 67 176 0.0 0.0 0.00 0.00 0.00 65 1008.7
20180526032033 67 174 0.0 0.0 0.00 0.00 0.00 65 1008.7
20180526031003 67 165 0.0 0.0 0.00 0.00 0.00 65 1008.9
20180526025939 68 165 0.0 0.0 0.00 0.00 0.00 64 1009.0
20180526024956 68 163 0.0 0.0 0.00 0.00 0.00 64 1009.1
20180526023927 68 214 0.0 0.0 0.00 0.00 0.00 63 1009.2
20180526022930 68 217 0.0 0.0 0.00 0.00 0.00 63 1009.2
20180526021926 69 223 0.0 0.0 0.00 0.00 0.00 63 1009.2
20180526020949 69 223 0.0 0.0 0.00 0.00 0.00 62 1009.2
20180526020000 69 223 0.0 0.0 0.00 0.00 0.00 62 1009.3
20180526014943 70 223 0.0 0.0 0.00 0.00 0.00 62 1009.2
20180526013947 70 223 0.0 0.0 0.00 0.00 0.00 61 1009.3
20180526012915 71 223 0.0 0.0 0.00 0.00 0.00 58 1009.3
20180526011846 71 223 0.0 0.0 0.00 0.00 0.00 58 1009.4
20180526010823 72 223 0.0 0.0 0.00 0.00 0.00 57 1009.2
20180526005757 73 223 0.0 0.0 0.00 0.00 0.00 55 1009.1
20180526004741 75 223 0.0 0.0 0.00 0.00 0.00 54 1009.1
20180526003756 76 223 0.0 0.0 0.00 0.00 0.00 54 1009.1
20180526002732 78 223 0.0 0.0 0.00 0.00 0.00 49 1009.1
20180526001732 79 223 0.0 0.0 0.00 0.00 0.00 47 1009.1
20180526000714 80 221 0.0 0.0 0.00 0.00 0.00 45 1009.2
20180525235736 81 207 0.0 0.0 0.00 0.00 0.00 42 1009.1
20180525234703 81 262 0.0 0.0 0.00 0.00 0.00 43 1009.2
20180525233648 81 262 0.0 0.0 0.00 0.00 0.00 41 1009.1
20180525232703 82 0 0.0 0.0 0.00 0.00 0.00 38 1009.1
20180525231653 82 243 0.0 0.0 0.00 0.00 0.00 39 1009.2
20180525230635 82 261 1.0 9.0 0.00 0.00 0.00 40 1009.2
20180525225612 82 256 0.0 3.0 0.00 0.00 0.00 39 1009.1
20180525224618 83 226 0.0 4.0 0.00 0.00 0.00 39 1009.3
20180525223620 83 245 0.0 0.0 0.00 0.00 0.00 38 1009.3
20180525222618 83 255 0.0 0.0 0.00 0.00 0.00 39 1009.4
20180525221601 83 249 0.0 3.0 0.00 0.00 0.00 38 1009.4
20180525220536 83 242 5.0 14.0 0.00 0.00 0.00 35 1009.5
20180525215600 83 214 0.0 0.0 0.00 0.00 0.00 36 1009.6
20180525214605 83 280 0.0 5.0 0.00 0.00 0.00 39 1009.8
20180525213612 83 30 0.0 0.0 0.00 0.00 0.00 39 1009.8
20180525212541 83 226 0.0 6.0 0.00 0.00 0.00 37 1010.0
20180525211539 83 355 0.0 0.0 0.00 0.00 0.00 42 1010.3
20180525210512 83 23 0.0 0.0 0.00 0.00 0.00 41 1010.4
20180525205455 84 256 0.0 4.0 0.00 0.00 0.00 36 1010.6
20180525204514 84 275 2.0 1.0 0.00 0.00 0.00 38 1010.7
20180525203449 85 226 1.0 12.0 0.00 0.00 0.00 36 1010.8
20180525202448 84 205 0.0 5.0 0.00 0.00 0.00 34 1011.0
20180525201501 85 242 0.0 4.0 0.00 0.00 0.00 37 1011.1
20180525200520 85 248 0.0 6.0 0.00 0.00 0.00 36 1011.3
20180525195515 85 235 0.0 7.0 0.00 0.00 0.00 35 1011.5
20180525194538 85 254 0.0 0.0 0.00 0.00 0.00 37 1011.5
20180525193509 85 263 0.0 6.0 0.00 0.00 0.00 38 1011.8
20180525192442 84 276 0.0 5.0 0.00 0.00 0.00 34 1011.8
20180525191432 85 194 0.0 5.0 0.00 0.00 0.00 37 1012.0
20180525190438 85 255 0.0 3.0 0.00 0.00 0.00 36 1012.2
20180525185413 84 292 0.0 7.0 0.00 0.00 0.00 38 1012.2
20180525184424 84 235 0.0 0.0 0.00 0.00 0.00 37 1012.2
20180525183415 84 250 0.0 3.0 0.00 0.00 0.00 34 1012.4
20180525182347 84 225 0.0 0.0 0.00 0.00 0.00 36 1012.4
20180525181314 84 228 0.0 5.0 0.00 0.00 0.00 38 1012.5
20180525180316 84 246 0.0 5.0 0.00 0.00 0.00 39 1012.6
20180525175311 83 272 0.0 0.0 0.00 0.00 0.00 40 1012.7
20180525174312 83 285 0.0 4.0 0.00 0.00 0.00 39 1012.8
20180525173259 83 250 1.0 7.0 0.00 0.00 0.00 39 1013.0
20180525172232 83 248 0.0 9.0 0.00 0.00 0.00 38 1012.9
20180525171226 83 284 0.0 5.0 0.00 0.00 0.00 38 1012.9
20180525170206 83 284 0.0 1.0 0.00 0.00 0.00 41 1013.1
20180525165223 82 277 0.0 7.0 0.00 0.00 0.00 40 1013.3
20180525164231 82 245 1.0 9.0 0.00 0.00 0.00 40 1013.4
20180525163213 82 243 0.0 3.0 0.00 0.00 0.00 42 1013.6
20180525162210 82 247 0.0 7.0 0.00 0.00 0.00 43 1013.7
20180525161202 81 229 0.0 6.0 0.00 0.00 0.00 42 1013.8
20180525160134 81 182 0.0 0.0 0.00 0.00 0.00 43 1013.9
20180525155102 81 236 0.0 4.0 0.00 0.00 0.00 42 1014.1
20180525154051 81 252 0.0 3.0 0.00 0.00 0.00 43 1014.3
20180525153038 80 215 1.0 7.0 0.00 0.00 0.00 42 1014.3
20180525152039 80 234 0.0 5.0 0.00 0.00 0.00 43 1014.4
20180525151041 80 252 0.0 5.0 0.00 0.00 0.00 45 1014.5
20180525150026 79 298 0.0 4.0 0.00 0.00 0.00 46 1014.6
20180525145008 79 213 0.0 1.0 0.00 0.00 0.00 51 1014.6
20180525143944 79 240 1.0 8.0 0.00 0.00 0.00 49 1014.8
20180525142954 78 246 0.0 6.0 0.00 0.00 0.00 50 1014.8
20180525142011 78 263 0.0 4.0 0.00 0.00 0.00 52 1014.8
20180525141010 77 230 0.0 3.0 0.00 0.00 0.00 54 1014.8
20180525140003 76 233 0.0 6.0 0.00 0.00 0.00 49 1015.0
20180525134933 76 215 0.0 2.0 0.00 0.00 0.00 57 1015.1
20180525133958 75 212 0.0 2.0 0.00 0.00 0.00 56 1015.1
20180525132931 73 193 0.0 3.0 0.00 0.00 0.00 57 1015.3
20180525131926 73 223 0.0 3.0 0.00 0.00 0.00 58 1015.3
20180525130916 71 200 0.0 5.0 0.00 0.00 0.00 61 1015.3
20180525125855 70 195 0.0 4.0 0.00 0.00 0.00 62 1015.2
20180525124905 69 201 0.0 4.0 0.00 0.00 0.00 62 1015.2
20180525123858 68 202 0.0 3.0 0.00 0.00 0.00 64 1015.3
20180525122858 67 198 0.0 0.0 0.00 0.00 0.00 65 1015.5
20180525121830 66 201 0.0 1.0 0.00 0.00 0.00 69 1015.5
20180525120822 64 204 0.0 1.0 0.00 0.00 0.00 70 1015.5
20180525115750 63 204 0.0 0.0 0.00 0.00 0.00 73 1015.6
20180525114738 62 193 0.0 0.0 0.00 0.00 0.00 74 1015.7
20180525113721 61 200 0.0 0.0 0.00 0.00 0.00 79 1015.8
20180525112737 59 200 0.0 0.0 0.00 0.00 0.00 82 1015.9
20180525111752 57 200 0.0 0.0 0.00 0.00 0.00 85 1016.0
20180525110720 56 200 0.0 0.0 0.00 0.00 0.00 85 1016.0
20180525105645 56 201 0.0 0.0 0.00 0.00 0.00 86 1016.0
20180525104630 55 176 0.0 0.0 0.00 0.00 0.00 86 1016.0
20180525103650 55 176 0.0 0.0 0.00 0.00 0.00 86 1016.0
20180525102645 55 194 0.0 0.0 0.00 0.00 0.00 86 1015.9
20180525101612 55 194 0.0 0.0 0.00 0.00 0.00 86 1015.9
20180525100556 54 196 0.0 0.0 0.00 0.00 0.00 85 1015.9
20180525095551 55 206 0.0 0.0 0.00 0.00 0.00 85 1016.0
20180525094546 55 205 0.0 0.0 0.00 0.00 0.00 84 1016.0
20180525093603 55 198 0.0 0.0 0.00 0.00 0.00 84 1016.0
20180525092553 55 198 0.0 0.0 0.00 0.00 0.00 84 1016.0
20180525091538 55 198 0.0 0.0 0.00 0.00 0.00 83 1016.0
20180525090519 56 198 0.0 0.0 0.00 0.00 0.00 83 1016.0
20180525085529 56 198 0.0 0.0 0.00 0.00 0.00 82 1016.1
20180525084544 56 198 0.0 0.0 0.00 0.00 0.00 82 1016.3
20180525083608 57 198 0.0 0.0 0.00 0.00 0.00 82 1016.5
20180525082623 57 198 0.0 0.0 0.00 0.00 0.00 82 1016.6